createdAt,value
2022-11-26T00:02:25.001Z,10.55
2022-11-26T00:04:54.910Z,6.13
2022-11-26T00:07:26.854Z,7.60
2022-11-26T00:09:57.706Z,8.52
2022-11-26T00:12:29.239Z,7.13
2022-11-26T00:14:57.712Z,9.52
2022-11-26T00:17:26.083Z,8.05
2022-11-26T00:19:54.632Z,8.00
2022-11-26T00:22:27.462Z,5.93
2022-11-26T00:24:58.322Z,5.93
2022-11-26T00:27:28.806Z,6.45
2022-11-26T00:29:57.379Z,6.72
2022-11-26T00:32:27.355Z,5.80
2022-11-26T00:34:55.833Z,8.05
2022-11-26T00:37:26.227Z,10.13
2022-11-26T00:39:57.025Z,6.80
2022-11-26T00:42:25.630Z,5.88
2022-11-26T00:44:54.627Z,4.63
2022-11-26T00:47:23.425Z,4.75
2022-11-26T00:49:51.833Z,5.45
2022-11-26T00:52:28.735Z,6.03
2022-11-26T00:54:58.579Z,6.05
2022-11-26T00:57:27.223Z,3.97
2022-11-26T00:59:55.541Z,7.50
2022-11-26T01:02:23.988Z,7.03
2022-11-26T01:04:52.748Z,8.32
2022-11-26T01:07:21.169Z,8.48
2022-11-26T01:09:50.822Z,6.55
2022-11-26T01:12:20.565Z,4.93
2022-11-26T01:14:48.881Z,8.13
2022-11-26T01:17:17.335Z,3.83
2022-11-26T01:19:45.676Z,5.28
2022-11-26T01:22:21.766Z,4.72
2022-11-26T01:24:50.918Z,5.72
2022-11-26T01:27:21.728Z,6.07
2022-11-26T01:29:50.135Z,4.75
2022-11-26T01:32:18.517Z,6.55
2022-11-26T01:34:50.061Z,7.95
2022-11-26T01:37:18.435Z,5.65
2022-11-26T01:39:46.812Z,5.25
2022-11-26T01:42:27.261Z,8.27
2022-11-26T01:44:55.712Z,7.60
2022-11-26T01:47:26.083Z,7.50
2022-11-26T01:50:33.519Z,8.48
2022-11-26T01:53:04.970Z,7.85
2022-11-26T01:55:40.341Z,8.57
2022-11-26T01:58:14.460Z,7.80
2022-11-26T02:00:43.265Z,5.43
2022-11-26T02:03:12.566Z,4.93
2022-11-26T02:05:45.607Z,5.55
2022-11-26T02:08:14.492Z,7.75
2022-11-26T02:10:42.951Z,5.88
2022-11-26T02:13:12.843Z,7.25
2022-11-26T02:15:50.877Z,6.72
2022-11-26T02:18:20.452Z,7.47
2022-11-26T02:20:56.874Z,7.88
2022-11-26T02:23:57.341Z,6.43
2022-11-26T02:27:12.945Z,6.07
2022-11-26T02:30:13.252Z,7.18
2022-11-26T02:32:57.676Z,7.82
2022-11-26T02:35:31.396Z,6.22
2022-11-26T02:40:29.072Z,7.10
2022-11-26T02:42:57.607Z,4.82
2022-11-26T02:45:31.482Z,5.32
2022-11-26T02:48:03.218Z,6.53
2022-11-26T02:50:38.216Z,4.70
2022-11-26T02:53:08.673Z,4.85
2022-11-26T02:55:41.382Z,5.15
2022-11-26T02:58:10.311Z,3.70
2022-11-26T03:00:43.111Z,4.82
2022-11-26T03:03:23.170Z,5.77
2022-11-26T03:05:55.365Z,5.72
2022-11-26T03:08:24.285Z,5.07
2022-11-26T03:10:52.652Z,4.90
2022-11-26T03:13:21.012Z,4.43
2022-11-26T03:15:51.316Z,4.43
2022-11-26T03:18:19.769Z,4.50
2022-11-26T03:20:52.116Z,4.70
2022-11-26T03:23:21.012Z,4.78
2022-11-26T03:25:49.379Z,4.43
2022-11-26T03:28:17.786Z,3.85
2022-11-26T03:30:46.108Z,5.00
2022-11-26T03:33:15.849Z,4.22
2022-11-26T03:35:44.264Z,4.60
2022-11-26T03:38:12.643Z,3.40
2022-11-26T03:40:41.721Z,2.78
2022-11-26T03:43:10.104Z,2.72
2022-11-26T03:45:38.507Z,3.10
2022-11-26T03:48:07.790Z,5.32
2022-11-26T03:50:37.537Z,2.97
2022-11-26T03:53:05.920Z,3.33
2022-11-26T03:55:34.402Z,2.75
2022-11-26T03:58:02.832Z,3.15
2022-11-26T04:00:31.151Z,2.75
2022-11-26T04:02:59.568Z,2.80
2022-11-26T04:05:28.110Z,3.78
2022-11-26T04:07:57.905Z,2.72
2022-11-26T04:10:26.393Z,5.60
2022-11-26T04:12:54.775Z,5.13
2022-11-26T04:15:23.165Z,6.18
2022-11-26T04:17:51.529Z,8.32
2022-11-26T04:20:20.035Z,5.00
2022-11-26T04:22:48.367Z,6.47
2022-11-26T04:25:18.267Z,4.65
2022-11-26T04:27:46.615Z,7.10
2022-11-26T04:30:16.727Z,5.63
2022-11-26T04:32:45.248Z,5.68
2022-11-26T04:35:13.600Z,6.57
2022-11-26T04:37:42.202Z,7.82
2022-11-26T04:40:12.176Z,5.20
2022-11-26T04:42:41.852Z,6.13
2022-11-26T04:45:11.718Z,7.75
2022-11-26T04:47:42.928Z,3.00
2022-11-26T04:50:13.435Z,3.33
2022-11-26T04:52:41.797Z,7.65
2022-11-26T04:55:10.897Z,6.35
2022-11-26T04:57:39.251Z,5.80
2022-11-26T05:00:11.988Z,7.80
2022-11-26T05:02:40.353Z,4.80
2022-11-26T05:05:09.431Z,6.25
2022-11-26T05:07:37.893Z,7.22
2022-11-26T05:10:09.010Z,8.07
2022-11-26T05:12:37.568Z,7.32
2022-11-26T05:15:06.912Z,6.38
2022-11-26T05:17:36.843Z,7.90
2022-11-26T05:20:06.454Z,6.45
2022-11-26T05:22:34.824Z,8.68
2022-11-26T05:25:03.219Z,6.07
2022-11-26T05:27:31.621Z,8.00
2022-11-26T05:30:00.105Z,9.25
2022-11-26T05:32:28.589Z,6.03
2022-11-26T05:35:00.197Z,6.22
2022-11-26T05:37:28.940Z,9.15
2022-11-26T05:39:57.325Z,9.23
2022-11-26T05:42:25.645Z,6.80
2022-11-26T05:44:53.966Z,8.07
2022-11-26T05:47:22.230Z,4.78
2022-11-26T05:49:50.594Z,4.45
2022-11-26T05:52:21.085Z,4.10
2022-11-26T05:54:49.405Z,4.40
2022-11-26T05:57:18.421Z,2.38
2022-11-26T05:59:47.625Z,2.83
2022-11-26T06:02:16.183Z,1.88
2022-11-26T06:04:44.660Z,5.47
2022-11-26T06:07:13.028Z,4.15
2022-11-26T06:09:42.822Z,3.15
2022-11-26T06:12:11.174Z,3.40
2022-11-26T06:14:43.097Z,5.13
2022-11-26T06:17:11.873Z,6.43
2022-11-26T06:19:40.590Z,4.75
2022-11-26T06:22:09.486Z,7.07
2022-11-26T06:24:38.172Z,4.75
2022-11-26T06:27:08.450Z,5.25
2022-11-26T06:29:36.870Z,4.18
2022-11-26T06:32:05.427Z,6.25
2022-11-26T06:34:33.901Z,6.03
2022-11-26T06:37:02.833Z,4.97
2022-11-26T06:39:31.465Z,4.85
2022-11-26T06:41:59.796Z,6.97
2022-11-26T06:44:29.565Z,6.60
2022-11-26T06:46:57.960Z,6.97
2022-11-26T06:49:26.621Z,7.72
2022-11-26T06:51:55.191Z,7.40
2022-11-26T06:54:23.685Z,11.23
2022-11-26T06:56:52.188Z,11.00
2022-11-26T06:59:20.448Z,5.63
2022-11-26T07:01:50.389Z,8.13
2022-11-26T07:04:18.850Z,8.02
2022-11-26T07:06:47.386Z,4.60
2022-11-26T07:09:15.800Z,6.63
2022-11-26T07:11:44.575Z,5.50
2022-11-26T07:14:13.104Z,5.43
2022-11-26T07:16:41.617Z,9.20
2022-11-26T07:19:15.426Z,7.93
2022-11-26T07:21:43.938Z,9.05
2022-11-26T07:24:12.297Z,8.30
2022-11-26T07:26:40.892Z,6.13
2022-11-26T07:29:09.485Z,6.60
2022-11-26T07:31:38.114Z,5.68
2022-11-26T07:34:06.711Z,7.05
2022-11-26T07:36:37.450Z,6.57
2022-11-26T07:39:05.986Z,11.75
2022-11-26T07:41:34.462Z,10.07
2022-11-26T07:44:03.103Z,5.75
2022-11-26T07:46:31.607Z,4.00
2022-11-26T07:49:01.285Z,4.72
2022-11-26T07:51:31.679Z,4.53
2022-11-26T07:54:06.520Z,3.58
2022-11-26T07:56:36.233Z,4.45
2022-11-26T07:59:05.314Z,4.57
2022-11-26T08:01:34.644Z,3.88
2022-11-26T08:04:06.249Z,7.30
2022-11-26T08:06:35.538Z,3.35
2022-11-26T08:09:06.264Z,3.28
2022-11-26T08:11:36.047Z,4.32
2022-11-26T08:14:06.674Z,3.33
2022-11-26T08:16:35.718Z,3.00
2022-11-26T08:19:07.004Z,4.18
2022-11-26T08:21:36.544Z,6.90
2022-11-26T08:24:07.438Z,7.47
2022-11-26T08:26:43.567Z,7.43
2022-11-26T08:29:12.770Z,5.60
2022-11-26T08:31:45.571Z,6.55
2022-11-26T08:34:16.507Z,5.63
2022-11-26T08:36:45.858Z,5.10
2022-11-26T08:39:17.690Z,7.32
2022-11-26T08:41:52.191Z,5.10
2022-11-26T08:44:21.801Z,4.80
2022-11-26T08:46:50.635Z,8.80
2022-11-26T08:49:19.087Z,10.20
2022-11-26T08:51:47.469Z,6.97
2022-11-26T08:54:20.025Z,8.85
2022-11-26T08:56:48.365Z,6.00
2022-11-26T08:59:17.707Z,9.07
2022-11-26T09:01:46.155Z,4.55
2022-11-26T09:04:14.501Z,5.03
2022-11-26T09:06:43.124Z,4.97
2022-11-26T09:09:14.665Z,8.63
2022-11-26T09:11:47.305Z,6.78
2022-11-26T09:14:16.770Z,8.98
2022-11-26T09:16:46.124Z,6.68
2022-11-26T09:19:15.585Z,4.70
2022-11-26T09:21:44.205Z,4.63
2022-11-26T09:24:12.921Z,7.15
2022-11-26T09:26:41.885Z,10.73
2022-11-26T09:29:15.312Z,4.95
2022-11-26T09:32:15.391Z,9.88
2022-11-26T09:34:35.784Z,5.88
2022-11-26T09:37:05.818Z,9.50
2022-11-26T09:39:34.552Z,4.88
2022-11-26T09:42:08.069Z,7.30
2022-11-26T09:44:59.412Z,4.53
2022-11-26T09:47:30.188Z,7.28
2022-11-26T09:50:03.979Z,6.22
2022-11-26T09:55:09.518Z,7.03
2022-11-26T09:57:43.338Z,6.00
2022-11-26T10:00:24.976Z,7.30
2022-11-26T10:02:54.813Z,6.45
2022-11-26T10:05:27.496Z,5.80
2022-11-26T10:08:07.161Z,8.95
2022-11-26T10:10:43.201Z,10.27
2022-11-26T10:13:21.972Z,5.72
2022-11-26T10:16:03.935Z,9.32
2022-11-26T10:18:41.796Z,7.70
2022-11-26T10:21:32.459Z,8.60
2022-11-26T10:24:12.574Z,6.70
2022-11-26T10:26:42.298Z,5.88
2022-11-26T10:29:23.532Z,7.97
2022-11-26T10:32:00.123Z,5.13
2022-11-26T10:34:39.494Z,8.63
2022-11-26T10:37:08.559Z,9.88
2022-11-26T10:39:37.231Z,10.05
2022-11-26T10:42:10.980Z,6.05
2022-11-26T10:47:30.785Z,7.47
2022-11-26T10:53:08.120Z,7.60
2022-11-26T10:55:41.588Z,9.05
2022-11-26T10:58:19.491Z,5.95
2022-11-26T11:00:57.843Z,5.07
2022-11-26T11:04:05.944Z,8.40
2022-11-26T11:06:45.427Z,5.18
2022-11-26T11:09:27.039Z,8.15
2022-11-26T11:12:22.121Z,7.05
2022-11-26T11:14:51.974Z,7.22
2022-11-26T11:17:31.016Z,6.20
2022-11-26T11:20:13.121Z,4.88
2022-11-26T11:22:41.840Z,7.10
2022-11-26T11:25:23.284Z,7.97
2022-11-26T11:27:53.270Z,6.13
2022-11-26T11:30:27.200Z,6.50
2022-11-26T11:32:57.882Z,9.13
2022-11-26T11:35:31.211Z,18.23
2022-11-26T11:38:00.298Z,8.98
2022-11-26T11:40:31.226Z,5.18
2022-11-26T11:43:01.678Z,5.97
2022-11-26T11:45:35.105Z,5.90
2022-11-26T11:48:17.626Z,7.82
2022-11-26T11:50:57.176Z,7.07
2022-11-26T11:53:37.688Z,6.03
2022-11-26T11:56:22.163Z,7.30
2022-11-26T11:59:11.673Z,5.78
2022-11-26T12:01:59.204Z,6.00
2022-11-26T12:04:49.088Z,8.52
2022-11-26T12:07:36.511Z,7.60
2022-11-26T12:10:13.665Z,8.15
2022-11-26T12:12:47.829Z,5.18
2022-11-26T12:15:26.539Z,7.90
2022-11-26T12:18:00.991Z,6.20
2022-11-26T12:20:36.241Z,6.32
2022-11-26T12:23:24.851Z,6.40
2022-11-26T12:25:58.996Z,8.73
2022-11-26T12:28:32.683Z,8.48
2022-11-26T12:33:36.188Z,4.70
2022-11-26T12:36:14.457Z,8.40
2022-11-26T12:38:49.118Z,7.70
2022-11-26T12:41:20.920Z,6.72
2022-11-26T12:43:57.942Z,8.02
2022-11-26T12:46:33.169Z,6.00
2022-11-26T12:49:11.557Z,8.10
2022-11-26T12:51:45.628Z,7.68
2022-11-26T12:54:23.680Z,5.43
2022-11-26T12:56:59.882Z,6.90
2022-11-26T12:59:37.429Z,6.80
2022-11-26T13:02:21.471Z,6.20
2022-11-26T13:04:50.486Z,6.20
2022-11-26T13:07:30.433Z,7.20
2022-11-26T13:10:14.579Z,7.03
2022-11-26T13:15:25.361Z,7.20
2022-11-26T13:17:54.223Z,6.93
2022-11-26T13:20:40.187Z,5.93
2022-11-26T13:23:20.988Z,8.57
2022-11-26T13:26:20.226Z,8.55
2022-11-26T13:29:05.045Z,8.68
2022-11-26T13:31:48.268Z,8.27
2022-11-26T13:34:41.999Z,5.93
2022-11-26T13:37:27.115Z,7.47
2022-11-26T13:40:20.560Z,5.20
2022-11-26T13:43:30.954Z,6.03
2022-11-26T13:46:20.402Z,9.32
2022-11-26T13:48:57.324Z,8.90
2022-11-26T13:51:33.113Z,8.07
2022-11-26T13:54:09.242Z,8.52
2022-11-26T13:56:39.808Z,9.63
2022-11-26T13:59:17.089Z,8.20
2022-11-26T14:01:47.333Z,6.38
2022-11-26T14:04:17.271Z,10.80
2022-11-26T14:07:20.130Z,9.02
2022-11-26T14:09:54.593Z,9.88
2022-11-26T14:12:24.223Z,6.45
2022-11-26T14:14:54.087Z,3.85
2022-11-26T14:17:32.492Z,6.25
2022-11-26T14:20:12.932Z,8.38
2022-11-26T14:22:41.379Z,5.30
2022-11-26T14:25:13.815Z,9.18
2022-11-26T14:27:45.337Z,9.77
2022-11-26T14:30:22.402Z,7.63
2022-11-26T14:32:58.352Z,8.77
2022-11-26T14:35:33.888Z,9.93
2022-11-26T14:38:04.990Z,8.63
2022-11-26T14:40:35.002Z,6.70
2022-11-26T14:43:16.442Z,11.52
2022-11-26T14:45:48.215Z,8.63
2022-11-26T14:48:26.469Z,11.48
2022-11-26T14:50:57.032Z,9.55
2022-11-26T14:53:29.731Z,11.90
2022-11-26T14:55:59.346Z,7.25
2022-11-26T14:58:33.092Z,9.73
2022-11-26T15:03:56.507Z,11.77
2022-11-26T15:06:27.698Z,11.18
2022-11-26T15:09:14.651Z,9.18
2022-11-26T15:11:48.066Z,9.23
2022-11-26T15:14:26.986Z,19.88
2022-11-26T15:17:00.219Z,9.68
2022-11-26T15:19:32.403Z,8.63
2022-11-26T15:22:07.326Z,9.82
2022-11-26T15:24:36.169Z,5.72
2022-11-26T15:27:04.603Z,8.75
2022-11-26T15:29:41.365Z,7.45
2022-11-26T15:32:30.473Z,8.73
2022-11-26T15:35:01.739Z,12.52
2022-11-26T15:37:30.237Z,10.98
2022-11-26T15:40:21.529Z,7.85
2022-11-26T15:42:51.192Z,14.50
2022-11-26T15:45:22.721Z,22.50
2022-11-26T15:47:54.483Z,23.23
2022-11-26T15:50:30.473Z,25.25
2022-11-26T15:53:02.659Z,13.48
2022-11-26T15:55:35.392Z,13.20
2022-11-26T15:58:07.727Z,12.95
2022-11-26T16:00:38.417Z,13.75
2022-11-26T16:03:42.721Z,13.27
2022-11-26T16:06:28.015Z,9.77
2022-11-26T16:09:03.041Z,10.02
2022-11-26T16:11:36.782Z,10.70
2022-11-26T16:16:53.156Z,12.32
2022-11-26T16:19:23.254Z,10.50
2022-11-26T16:21:54.051Z,9.00
2022-11-26T16:24:30.946Z,11.48
2022-11-26T16:27:02.046Z,10.10
2022-11-26T16:29:31.661Z,10.68
2022-11-26T16:32:00.547Z,9.35
2022-11-26T16:34:30.860Z,9.20
2022-11-26T16:37:03.552Z,13.25
2022-11-26T16:39:39.068Z,10.85
2022-11-26T16:42:15.886Z,15.60
2022-11-26T16:44:44.386Z,14.02
2022-11-26T16:47:17.267Z,23.48
2022-11-26T16:49:47.024Z,25.52
2022-11-26T16:52:19.163Z,17.95
2022-11-26T16:54:47.773Z,17.27
2022-11-26T16:57:20.567Z,23.60
2022-11-26T16:59:52.847Z,15.80
2022-11-26T17:02:24.295Z,18.98
2022-11-26T17:04:54.150Z,17.10
2022-11-26T17:07:26.336Z,14.82
2022-11-26T17:09:55.885Z,16.23
2022-11-26T17:12:25.818Z,16.27
2022-11-26T17:14:54.183Z,15.95
2022-11-26T17:17:25.606Z,14.50
2022-11-26T17:19:56.936Z,17.65
2022-11-26T17:22:25.948Z,15.63
2022-11-26T17:24:54.249Z,18.10
2022-11-26T17:27:24.254Z,18.00
2022-11-26T17:29:52.644Z,15.38
2022-11-26T17:32:22.684Z,13.73
2022-11-26T17:34:51.089Z,13.05
2022-11-26T17:37:27.725Z,14.27
2022-11-26T17:39:59.327Z,11.68
2022-11-26T17:42:32.177Z,12.40
2022-11-26T17:45:03.448Z,8.32
2022-11-26T17:47:31.945Z,12.05
2022-11-26T17:50:00.469Z,15.73
2022-11-26T17:52:30.394Z,11.68
2022-11-26T17:54:58.839Z,13.40
2022-11-26T17:57:28.423Z,16.90
2022-11-26T17:59:57.033Z,18.67
2022-11-26T18:02:25.416Z,12.32
2022-11-26T18:04:53.794Z,12.80
2022-11-26T18:07:22.528Z,7.20
2022-11-26T18:09:52.369Z,11.75
2022-11-26T18:12:25.412Z,8.65
2022-11-26T18:14:54.351Z,9.85
2022-11-26T18:17:22.987Z,13.88
2022-11-26T18:19:51.526Z,40.55
2022-11-26T18:22:22.060Z,28.60
2022-11-26T18:24:57.040Z,26.17
2022-11-26T18:27:27.443Z,19.55
2022-11-26T18:29:55.975Z,21.70
2022-11-26T18:32:24.697Z,25.48
2022-11-26T18:34:53.593Z,29.08
2022-11-26T18:37:21.963Z,24.05
2022-11-26T18:39:51.708Z,15.38
2022-11-26T18:42:37.611Z,15.80
2022-11-26T18:45:08.167Z,16.10
2022-11-26T18:47:36.587Z,20.13
2022-11-26T18:50:05.561Z,20.73
2022-11-26T18:52:33.949Z,29.60
2022-11-26T18:55:08.091Z,34.05
2022-11-26T18:57:36.552Z,35.47
2022-11-26T19:00:07.218Z,33.42
2022-11-26T19:02:36.416Z,30.42
2022-11-26T19:05:05.197Z,32.55
2022-11-26T19:07:33.823Z,29.25
2022-11-26T19:10:03.991Z,27.02
2022-11-26T19:12:32.453Z,34.88
2022-11-26T19:15:00.853Z,33.22
2022-11-26T19:17:29.214Z,37.13
2022-11-26T19:19:58.075Z,39.03
2022-11-26T19:22:26.499Z,38.60
2022-11-26T19:24:54.855Z,39.67
2022-11-26T19:27:24.674Z,36.08
2022-11-26T19:29:53.099Z,39.03
2022-11-26T19:32:21.557Z,42.97
2022-11-26T19:34:49.946Z,39.42
2022-11-26T19:37:18.585Z,36.03
2022-11-26T19:39:46.993Z,32.58
2022-11-26T19:42:15.999Z,25.40
2022-11-26T19:44:45.811Z,22.40
2022-11-26T19:47:14.189Z,24.40
2022-11-26T19:49:42.604Z,23.83
2022-11-26T19:52:10.948Z,21.35
2022-11-26T19:54:39.408Z,20.83
2022-11-26T19:57:08.437Z,23.52
2022-11-26T19:59:37.244Z,21.60
2022-11-26T20:02:08.749Z,16.85
2022-11-26T20:04:37.133Z,11.73
2022-11-26T20:07:06.204Z,7.63
2022-11-26T20:09:34.644Z,9.88
2022-11-26T20:12:03.040Z,10.32
2022-11-26T20:14:31.408Z,9.45
2022-11-26T20:17:01.296Z,6.70
2022-11-26T20:19:31.295Z,11.40
2022-11-26T20:21:59.727Z,10.38
2022-11-26T20:24:28.077Z,8.43
2022-11-26T20:26:56.409Z,11.88
2022-11-26T20:29:25.337Z,6.82
2022-11-26T20:31:54.964Z,9.07
2022-11-26T20:34:26.234Z,9.07
2022-11-26T20:36:56.140Z,7.22
2022-11-26T20:39:25.382Z,8.43
2022-11-26T20:41:53.948Z,6.40
2022-11-26T20:44:23.266Z,10.13
2022-11-26T20:46:51.636Z,9.98
2022-11-26T20:49:19.973Z,8.52
2022-11-26T20:51:48.294Z,10.15
2022-11-26T20:54:18.422Z,7.00
2022-11-26T20:56:46.890Z,7.10
2022-11-26T20:59:15.228Z,7.38
2022-11-26T21:01:43.881Z,10.45
2022-11-26T21:04:12.848Z,9.15
2022-11-26T21:06:43.771Z,8.85
2022-11-26T21:09:14.155Z,7.63
2022-11-26T21:11:44.252Z,7.10
2022-11-26T21:14:15.175Z,11.15
2022-11-26T21:16:45.005Z,9.05
2022-11-26T21:19:14.463Z,9.05
2022-11-26T21:21:43.623Z,8.32
2022-11-26T21:24:12.101Z,10.75
2022-11-26T21:26:40.443Z,6.72
2022-11-26T21:29:10.228Z,10.63
2022-11-26T21:31:38.717Z,6.30
2022-11-26T21:34:08.630Z,7.85
2022-11-26T21:36:38.101Z,9.40
2022-11-26T21:39:06.801Z,7.03
2022-11-26T21:41:35.175Z,7.03
2022-11-26T21:44:04.097Z,7.97
2022-11-26T21:46:38.637Z,6.07
2022-11-26T21:49:08.397Z,9.55
2022-11-26T21:51:37.139Z,10.02
2022-11-26T21:54:05.925Z,5.07
2022-11-26T21:56:34.724Z,8.18
2022-11-26T21:59:03.273Z,14.23
2022-11-26T22:01:34.775Z,9.20
2022-11-26T22:04:05.449Z,7.63
2022-11-26T22:06:34.580Z,7.75
2022-11-26T22:09:03.446Z,7.93
2022-11-26T22:11:34.212Z,6.20
2022-11-26T22:14:02.444Z,8.50
2022-11-26T22:16:32.201Z,11.02
2022-11-26T22:19:02.624Z,8.95
2022-11-26T22:21:32.695Z,8.23
2022-11-26T22:24:02.488Z,9.65
2022-11-26T22:26:32.727Z,8.15
2022-11-26T22:29:01.430Z,8.98
2022-11-26T22:31:31.817Z,5.43
2022-11-26T22:34:03.562Z,8.80
2022-11-26T22:36:32.187Z,8.07
2022-11-26T22:39:01.965Z,7.55
2022-11-26T22:41:30.321Z,9.05
2022-11-26T22:44:00.422Z,10.88
2022-11-26T22:46:29.397Z,9.68
2022-11-26T22:48:59.864Z,9.82
2022-11-26T22:51:31.629Z,6.57
2022-11-26T22:54:01.729Z,6.75
2022-11-26T22:56:30.743Z,6.55
2022-11-26T22:58:59.644Z,10.63
2022-11-26T23:01:29.701Z,7.78
2022-11-26T23:04:01.174Z,10.13
2022-11-26T23:06:32.714Z,11.15
2022-11-26T23:09:03.401Z,7.75
2022-11-26T23:11:33.481Z,9.48
2022-11-26T23:14:05.102Z,9.95
2022-11-26T23:16:33.603Z,10.98
2022-11-26T23:19:02.392Z,7.38
2022-11-26T23:21:34.611Z,9.68
2022-11-26T23:24:04.163Z,7.03
2022-11-26T23:26:34.312Z,9.95
2022-11-26T23:29:04.404Z,8.77
2022-11-26T23:31:35.979Z,7.95
2022-11-26T23:34:04.826Z,8.93
2022-11-26T23:36:35.122Z,11.00
2022-11-26T23:39:05.783Z,10.30
2022-11-26T23:41:34.541Z,8.25
2022-11-26T23:44:03.568Z,7.25
2022-11-26T23:46:35.452Z,9.32
2022-11-26T23:49:04.289Z,10.55
2022-11-26T23:51:35.005Z,7.38
2022-11-26T23:54:03.502Z,8.05
2022-11-26T23:56:33.977Z,7.55
2022-11-26T23:59:04.543Z,11.75
